Time;durP1;ratioP1;P1;durP2;ratioP2;P2;SDS_P1;SDS_P2;PMS_P1;PMS_P2;Temp;Humidity;BMP_temperature;BMP_pressure;BME280_temperature;BME280_humidity;BME280_pressure;Samples;Min_cycle;Max_cycle;Signal;HPM_P1;HPM_P2
2021/06/20 00:00:39;;;;;;;33.22;19.52;;;16.10;99.90;;;;;;5060000;28;20116;-76
2021/06/20 00:03:05;;;;;;;36.40;19.10;;;16.10;99.90;;;;;;5060900;28;20103;-77
2021/06/20 00:05:38;;;;;;;32.03;17.52;;;16.10;99.90;;;;;;5046819;28;20058;-76
2021/06/20 00:08:08;;;;;;;39.15;20.30;;;16.10;99.90;;;;;;5066233;28;20037;-76
2021/06/20 00:10:37;;;;;;;35.35;19.00;;;16.10;99.90;;;;;;5065279;28;20174;-77
2021/06/20 00:13:02;;;;;;;34.53;19.17;;;16.10;99.90;;;;;;5061647;28;20046;-76
2021/06/20 00:15:30;;;;;;;36.60;20.02;;;16.20;99.90;;;;;;5057076;28;20037;-77
2021/06/20 00:17:56;;;;;;;42.15;21.55;;;16.10;99.90;;;;;;5062654;28;20037;-77
2021/06/20 00:20:26;;;;;;;33.45;20.25;;;16.10;99.90;;;;;;5059893;28;20037;-76
2021/06/20 00:22:53;;;;;;;42.08;22.38;;;16.10;99.90;;;;;;5053095;28;20063;-77
2021/06/20 00:25:20;;;;;;;44.13;22.63;;;16.10;99.90;;;;;;5064523;28;20091;-77
2021/06/20 00:27:46;;;;;;;37.08;22.42;;;16.10;99.90;;;;;;5063408;28;20503;-77
2021/06/20 00:30:16;;;;;;;64.85;24.55;;;16.20;99.90;;;;;;5063855;28;20048;-77
2021/06/20 00:32:43;;;;;;;47.88;24.83;;;16.20;99.90;;;;;;5064233;28;20033;-77
2021/06/20 00:35:09;;;;;;;52.40;25.08;;;16.10;99.90;;;;;;5060237;28;20128;-78
2021/06/20 00:37:35;;;;;;;53.17;26.38;;;16.10;99.90;;;;;;5062805;28;20464;-78
2021/06/20 00:40:01;;;;;;;58.30;27.15;;;16.00;99.90;;;;;;5063899;28;20039;-78
2021/06/20 00:42:27;;;;;;;57.50;26.40;;;16.00;99.90;;;;;;5069977;28;20777;-78
2021/06/20 00:44:53;;;;;;;53.20;26.15;;;16.00;99.90;;;;;;5066303;28;20079;-78
2021/06/20 00:47:19;;;;;;;49.00;23.38;;;16.00;99.90;;;;;;5062210;28;21088;-78
2021/06/20 00:49:46;;;;;;;56.35;24.98;;;15.90;99.90;;;;;;5067700;28;20032;-78
2021/06/20 00:52:13;;;;;;;58.42;25.75;;;16.00;99.90;;;;;;5065717;28;20090;-79
2021/06/20 00:54:46;;;;;;;53.05;26.20;;;15.90;99.90;;;;;;5065430;28;20476;-78
2021/06/20 00:57:16;;;;;;;50.83;24.90;;;15.90;99.90;;;;;;5064330;28;20052;-79
2021/06/20 00:59:43;;;;;;;48.17;24.73;;;15.90;99.90;;;;;;5067058;28;20043;-78
2021/06/20 01:02:11;;;;;;;37.33;19.67;;;15.90;99.90;;;;;;5044566;28;20161;-78
2021/06/20 01:04:41;;;;;;;43.20;20.50;;;15.80;99.90;;;;;;5071930;28;20052;-78
2021/06/20 01:07:07;;;;;;;41.40;19.02;;;15.70;99.90;;;;;;5042511;28;20120;-79
2021/06/20 01:09:33;;;;;;;39.95;20.40;;;15.90;99.90;;;;;;5064560;28;20045;-78
2021/06/20 01:11:59;;;;;;;37.47;19.80;;;15.70;99.90;;;;;;5068478;28;20037;-78
2021/06/20 01:14:25;;;;;;;46.80;21.63;;;15.80;99.90;;;;;;5069115;28;20029;-78
2021/06/20 01:16:53;;;;;;;42.63;20.73;;;15.80;99.90;;;;;;5072670;28;20036;-77
2021/06/20 01:19:20;;;;;;;38.38;20.65;;;15.80;99.90;;;;;;5084853;28;20041;-78
2021/06/20 01:21:47;;;;;;;35.85;19.08;;;15.80;99.90;;;;;;5083278;28;20036;-78
2021/06/20 01:24:14;;;;;;;43.42;20.10;;;15.70;99.90;;;;;;5076593;28;20608;-77
2021/06/20 01:26:40;;;;;;;46.55;21.33;;;15.70;99.90;;;;;;5071437;28;20055;-78
2021/06/20 01:29:08;;;;;;;34.35;18.88;;;15.80;99.90;;;;;;5059609;28;20048;-78
2021/06/20 01:31:36;;;;;;;36.88;20.20;;;15.70;99.90;;;;;;5067936;28;20039;-78
2021/06/20 01:34:05;;;;;;;37.75;19.80;;;15.70;99.90;;;;;;5058364;28;20033;-78
2021/06/20 01:36:32;;;;;;;38.60;19.05;;;15.70;99.90;;;;;;5061613;28;20135;-77
2021/06/20 01:38:59;;;;;;;32.58;17.95;;;15.70;99.90;;;;;;5053618;28;20072;-77
2021/06/20 01:41:25;;;;;;;28.92;16.80;;;15.70;99.90;;;;;;5063598;28;20178;-77
2021/06/20 01:43:51;;;;;;;30.67;16.48;;;15.70;99.90;;;;;;5063823;28;20065;-77
2021/06/20 01:46:17;;;;;;;29.33;15.52;;;15.70;99.90;;;;;;5063183;28;20076;-77
2021/06/20 01:48:43;;;;;;;31.77;16.30;;;15.70;99.90;;;;;;5063620;28;20087;-78
2021/06/20 01:51:09;;;;;;;34.55;16.10;;;15.70;99.90;;;;;;5062154;28;20049;-77
2021/06/20 01:53:35;;;;;;;28.75;14.90;;;15.80;99.90;;;;;;5058427;28;20040;-78
2021/06/20 01:56:01;;;;;;;24.88;13.60;;;15.70;99.90;;;;;;5065692;28;20036;-78
2021/06/20 01:58:27;;;;;;;21.70;12.30;;;15.80;99.90;;;;;;5066401;28;20037;-78
2021/06/20 02:00:53;;;;;;;22.55;12.43;;;15.70;99.90;;;;;;5064610;28;20474;-78
2021/06/20 02:03:23;;;;;;;23.73;12.10;;;15.70;99.90;;;;;;5062118;28;20154;-78
2021/06/20 02:05:49;;;;;;;24.60;12.48;;;15.80;99.90;;;;;;5053384;28;20033;-78
2021/06/20 02:08:18;;;;;;;21.70;11.80;;;15.80;99.90;;;;;;5064364;28;20040;-78
2021/06/20 02:10:48;;;;;;;21.55;11.90;;;15.80;99.90;;;;;;5058171;28;20036;-77
2021/06/20 02:13:15;;;;;;;22.33;12.20;;;15.80;99.90;;;;;;5062685;28;20391;-78
2021/06/20 02:15:40;;;;;;;24.48;12.77;;;15.80;99.90;;;;;;5061723;28;20523;-78
2021/06/20 02:18:07;;;;;;;24.05;13.27;;;15.80;99.90;;;;;;5058687;28;20084;-78
2021/06/20 02:20:33;;;;;;;28.02;12.15;;;15.80;99.90;;;;;;5062769;28;20032;-78
2021/06/20 02:22:58;;;;;;;26.38;14.73;;;15.90;99.90;;;;;;5068794;28;20432;-77
2021/06/20 02:25:25;;;;;;;29.90;15.23;;;15.90;99.90;;;;;;5059732;28;20043;-77
2021/06/20 02:27:53;;;;;;;32.20;16.55;;;15.90;99.90;;;;;;5064797;28;20048;-78
2021/06/20 02:30:20;;;;;;;33.67;16.85;;;15.90;99.90;;;;;;5063770;28;20029;-78
2021/06/20 02:32:47;;;;;;;35.55;16.80;;;15.90;99.90;;;;;;5065141;28;20043;-78
2021/06/20 02:35:14;;;;;;;34.45;18.10;;;15.90;99.90;;;;;;5060588;28;20040;-78
2021/06/20 02:37:41;;;;;;;38.22;19.20;;;15.90;99.90;;;;;;5055806;28;20472;-78
2021/06/20 02:40:08;;;;;;;40.70;19.80;;;15.90;99.90;;;;;;5060525;28;20388;-78
2021/06/20 02:42:35;;;;;;;40.70;19.55;;;16.00;99.90;;;;;;5067140;28;20037;-78
2021/06/20 02:45:02;;;;;;;34.13;18.80;;;16.00;99.90;;;;;;5063625;28;20041;-78
2021/06/20 02:47:28;;;;;;;44.28;20.50;;;16.10;99.90;;;;;;5065125;28;20032;-78
2021/06/20 02:49:54;;;;;;;39.47;21.70;;;16.10;99.90;;;;;;5065875;28;20043;-78
2021/06/20 02:52:20;;;;;;;45.95;21.63;;;16.10;99.90;;;;;;5060083;28;20048;-78
2021/06/20 02:54:52;;;;;;;43.60;21.60;;;16.10;99.90;;;;;;5055791;28;20045;-78
2021/06/20 02:57:26;;;;;;;37.67;18.50;;;16.20;99.90;;;;;;5053130;28;20052;-78
2021/06/20 02:59:52;;;;;;;44.38;20.85;;;16.30;99.90;;;;;;5064826;28;20120;-78
2021/06/20 03:02:19;;;;;;;44.25;21.90;;;16.30;99.90;;;;;;5055620;28;20452;-78
2021/06/20 03:04:45;;;;;;;42.78;20.40;;;16.30;99.90;;;;;;5051037;28;20384;-78
2021/06/20 03:07:11;;;;;;;44.03;21.08;;;16.40;99.90;;;;;;5062997;28;20101;-78
2021/06/20 03:09:37;;;;;;;45.83;23.55;;;16.40;99.90;;;;;;5065250;28;20040;-78
2021/06/20 03:12:07;;;;;;;43.13;22.52;;;16.40;99.90;;;;;;5056298;28;20036;-78
2021/06/20 03:14:34;;;;;;;49.60;22.80;;;16.40;99.90;;;;;;5061329;28;20135;-78
2021/06/20 03:17:04;;;;;;;42.85;22.90;;;16.50;99.90;;;;;;5077230;28;20060;-78
2021/06/20 03:19:30;;;;;;;56.10;25.38;;;16.50;99.90;;;;;;5065523;28;20136;-79
2021/06/20 03:22:02;;;;;;;54.30;25.10;;;16.50;99.90;;;;;;5061332;28;20052;-78
2021/06/20 03:24:28;;;;;;;49.88;23.42;;;16.50;99.90;;;;;;5052948;28;20546;-78
2021/06/20 03:26:55;;;;;;;52.40;25.23;;;16.50;99.90;;;;;;5065534;28;20552;-78
2021/06/20 03:29:22;;;;;;;52.20;26.85;;;16.50;99.90;;;;;;5055557;28;20140;-78
2021/06/20 03:31:48;;;;;;;50.72;26.17;;;16.60;99.90;;;;;;5063890;28;20040;-78
2021/06/20 03:34:14;;;;;;;56.88;27.67;;;16.60;99.90;;;;;;5054218;28;20186;-78
2021/06/20 03:36:40;;;;;;;54.47;26.90;;;16.60;99.90;;;;;;5062075;28;20127;-78
2021/06/20 03:39:07;;;;;;;52.95;27.45;;;16.70;99.90;;;;;;5059698;28;20091;-78
2021/06/20 03:41:33;;;;;;;58.28;30.10;;;16.70;99.90;;;;;;5062016;28;20036;-78
2021/06/20 03:43:58;;;;;;;59.40;30.65;;;16.60;99.90;;;;;;5062040;28;20113;-78
2021/06/20 03:46:24;;;;;;;66.47;32.58;;;16.70;99.90;;;;;;5054984;28;20036;-79
2021/06/20 03:48:50;;;;;;;63.70;32.80;;;16.70;99.90;;;;;;5063538;28;20029;-78
2021/06/20 03:51:16;;;;;;;67.82;33.78;;;16.70;99.90;;;;;;5063649;28;20464;-78
2021/06/20 03:53:44;;;;;;;68.07;33.05;;;16.80;99.90;;;;;;5065166;28;20044;-78
2021/06/20 03:56:10;;;;;;;69.78;34.60;;;16.80;99.90;;;;;;5060652;28;20032;-79
2021/06/20 03:58:36;;;;;;;58.25;30.95;;;16.80;99.90;;;;;;5061274;28;20361;-78
2021/06/20 04:01:03;;;;;;;62.50;33.65;;;16.90;99.90;;;;;;5058515;28;20040;-78
2021/06/20 04:03:29;;;;;;;66.05;34.53;;;16.90;99.90;;;;;;5053566;28;20045;-78
2021/06/20 04:05:55;;;;;;;69.57;32.95;;;17.00;99.90;;;;;;5057235;28;20110;-78
2021/06/20 04:08:21;;;;;;;68.93;33.92;;;17.00;99.90;;;;;;5060109;28;20408;-78
2021/06/20 04:10:47;;;;;;;61.78;34.00;;;17.00;99.90;;;;;;5062029;28;20107;-78
2021/06/20 04:13:13;;;;;;;69.72;35.15;;;17.00;99.90;;;;;;5057716;28;20041;-78
2021/06/20 04:15:39;;;;;;;74.35;36.85;;;17.00;99.90;;;;;;5061563;28;20036;-78
2021/06/20 04:18:05;;;;;;;71.60;36.38;;;17.00;99.90;;;;;;5062991;28;20040;-78
2021/06/20 04:20:30;;;;;;;59.72;33.53;;;17.00;99.90;;;;;;5043526;28;20469;-78
2021/06/20 04:22:56;;;;;;;63.60;35.50;;;17.10;99.90;;;;;;5059811;28;20036;-78
2021/06/20 04:25:22;;;;;;;58.95;34.53;;;17.10;99.90;;;;;;5035527;28;20045;-78
2021/06/20 04:27:49;;;;;;;61.17;34.80;;;17.20;99.90;;;;;;5060727;28;20053;-78
2021/06/20 04:30:17;;;;;;;65.75;35.78;;;17.20;99.90;;;;;;5063797;28;20035;-78
2021/06/20 04:32:44;;;;;;;59.13;32.85;;;17.20;99.90;;;;;;5062568;28;20449;-78
2021/06/20 04:35:11;;;;;;;56.80;32.70;;;17.20;99.90;;;;;;5064743;28;20048;-78
2021/06/20 04:37:38;;;;;;;64.00;34.90;;;17.30;99.90;;;;;;5063858;28;20064;-79
2021/06/20 04:40:05;;;;;;;63.55;33.53;;;17.30;99.90;;;;;;5062966;28;20041;-78
2021/06/20 04:42:35;;;;;;;63.97;33.60;;;17.30;99.90;;;;;;5060507;28;20029;-78
2021/06/20 04:45:02;;;;;;;56.72;32.78;;;17.40;99.90;;;;;;5060314;28;20039;-78
2021/06/20 04:47:29;;;;;;;55.13;32.55;;;17.40;99.90;;;;;;5062838;28;20476;-78
2021/06/20 04:49:55;;;;;;;57.30;33.28;;;17.40;99.90;;;;;;5059819;28;20029;-78
2021/06/20 04:52:21;;;;;;;59.85;33.50;;;17.40;99.90;;;;;;5059881;28;20093;-78
2021/06/20 04:54:50;;;;;;;61.67;33.58;;;17.40;99.90;;;;;;5057525;28;20392;-78
2021/06/20 04:57:24;;;;;;;58.42;33.58;;;17.50;99.90;;;;;;5063946;28;20043;-78
2021/06/20 04:59:51;;;;;;;60.13;34.60;;;17.60;99.90;;;;;;5059533;28;20033;-78
2021/06/20 05:02:18;;;;;;;53.65;33.28;;;17.60;99.90;;;;;;5059732;28;20028;-78
2021/06/20 05:04:44;;;;;;;58.30;32.50;;;17.60;99.90;;;;;;5059890;28;20032;-78
2021/06/20 05:07:10;;;;;;;56.65;33.45;;;17.60;99.90;;;;;;5040458;28;20147;-79
2021/06/20 05:09:40;;;;;;;59.05;33.38;;;17.60;99.90;;;;;;5039391;28;20127;-79
2021/06/20 05:12:07;;;;;;;57.95;35.83;;;17.60;99.90;;;;;;5056175;28;20071;-79
2021/06/20 05:14:34;;;;;;;56.42;33.55;;;17.60;99.90;;;;;;5053810;28;20120;-78
2021/06/20 05:17:00;;;;;;;53.72;33.65;;;17.60;99.90;;;;;;5064975;28;20392;-78
2021/06/20 05:19:26;;;;;;;54.65;33.65;;;17.60;99.90;;;;;;5063971;28;20044;-79
2021/06/20 05:21:52;;;;;;;62.70;35.90;;;17.80;99.90;;;;;;5061548;28;20148;-78
2021/06/20 05:24:18;;;;;;;54.47;35.25;;;17.80;99.90;;;;;;5061836;28;20528;-78
2021/06/20 05:26:44;;;;;;;60.13;36.35;;;17.70;99.90;;;;;;5058066;28;20484;-79
2021/06/20 05:29:10;;;;;;;61.50;35.10;;;17.70;99.90;;;;;;5057454;28;20056;-78
2021/06/20 05:31:35;;;;;;;64.82;36.00;;;17.70;99.90;;;;;;5067959;28;20036;-79
2021/06/20 05:34:01;;;;;;;55.75;36.38;;;17.80;99.90;;;;;;5066605;28;20044;-78
2021/06/20 05:36:27;;;;;;;40.50;24.77;;;17.90;99.90;;;;;;5054694;28;20043;-82
2021/06/20 05:38:53;;;;;;;55.90;36.38;;;18.00;99.90;;;;;;5063879;28;20165;-82
2021/06/20 05:41:18;;;;;;;49.17;32.10;;;18.00;99.90;;;;;;5066516;28;20040;-80
2021/06/20 05:43:44;;;;;;;38.03;27.38;;;18.10;99.90;;;;;;5061790;28;20131;-79
2021/06/20 05:46:10;;;;;;;40.10;26.95;;;18.20;99.90;;;;;;5064315;28;20365;-81
2021/06/20 05:48:36;;;;;;;30.40;22.80;;;18.30;99.90;;;;;;5064891;28;20049;-79
2021/06/20 05:51:02;;;;;;;39.30;27.20;;;18.30;99.90;;;;;;5063374;28;20032;-78
2021/06/20 05:53:27;;;;;;;41.85;28.92;;;18.50;99.90;;;;;;5059631;28;20040;-81
2021/06/20 05:55:54;;;;;;;39.00;25.33;;;18.60;99.90;;;;;;5065392;28;20048;-81
2021/06/20 05:58:19;;;;;;;43.90;30.40;;;18.60;99.90;;;;;;5064329;28;20030;-81
2021/06/20 06:00:45;;;;;;;48.28;32.28;;;18.70;99.90;;;;;;5062473;28;20121;-79
2021/06/20 06:03:11;;;;;;;41.03;29.85;;;18.70;99.90;;;;;;5064027;28;20463;-80
2021/06/20 06:05:37;;;;;;;43.22;30.92;;;18.80;99.90;;;;;;5060018;28;20056;-80
2021/06/20 06:08:02;;;;;;;50.70;32.88;;;18.80;99.90;;;;;;5067899;28;20036;-80
2021/06/20 06:10:30;;;;;;;49.50;34.88;;;18.80;99.90;;;;;;5060863;28;20028;-77
2021/06/20 06:12:57;;;;;;;44.42;29.55;;;18.90;99.90;;;;;;5060922;28;20468;-80
2021/06/20 06:15:24;;;;;;;51.58;35.00;;;18.90;99.90;;;;;;5064020;28;20040;-79
2021/06/20 06:17:51;;;;;;;50.47;34.85;;;18.90;99.90;;;;;;5057912;28;20033;-79
2021/06/20 06:20:19;;;;;;;44.55;32.40;;;18.90;99.90;;;;;;5062786;28;20041;-78
2021/06/20 06:22:45;;;;;;;50.65;33.72;;;19.00;99.90;;;;;;5065012;28;20036;-79
2021/06/20 06:25:11;;;;;;;46.42;33.60;;;18.90;99.90;;;;;;5059227;28;20044;-80
2021/06/20 06:27:38;;;;;;;45.03;32.58;;;19.00;99.90;;;;;;5063312;28;20511;-82
2021/06/20 06:30:05;;;;;;;42.15;30.27;;;19.10;99.90;;;;;;5061197;28;20049;-80
2021/06/20 06:32:31;;;;;;;47.20;31.83;;;19.10;99.90;;;;;;5064251;28;20392;-80
2021/06/20 06:34:57;;;;;;;37.28;26.52;;;19.10;99.90;;;;;;5056990;28;20033;-79
2021/06/20 06:37:23;;;;;;;33.97;25.38;;;19.00;99.90;;;;;;5060165;28;20033;-79
2021/06/20 06:39:49;;;;;;;41.00;25.60;;;19.00;99.90;;;;;;5058878;28;20487;-79
2021/06/20 06:42:15;;;;;;;30.27;20.27;;;18.90;99.90;;;;;;5057394;28;20036;-79
2021/06/20 06:44:40;;;;;;;28.20;19.45;;;18.80;99.90;;;;;;5065229;28;20044;-80
2021/06/20 06:47:06;;;;;;;25.60;18.98;;;18.70;99.90;;;;;;5065790;28;20040;-79
2021/06/20 06:49:33;;;;;;;25.17;17.48;;;18.70;99.90;;;;;;5060109;28;20028;-80
2021/06/20 06:51:59;;;;;;;25.85;16.73;;;18.60;99.90;;;;;;5060733;28;20112;-80
2021/06/20 06:54:25;;;;;;;24.50;15.55;;;18.60;99.90;;;;;;5064283;28;20131;-80
2021/06/20 06:56:52;;;;;;;21.35;15.23;;;18.60;99.90;;;;;;5056234;28;20427;-79
2021/06/20 06:59:18;;;;;;;21.67;14.70;;;18.70;99.90;;;;;;5057531;28;20037;-80
2021/06/20 07:01:44;;;;;;;22.33;11.70;;;18.80;99.90;;;;;;5063471;28;20423;-80
2021/06/20 07:04:10;;;;;;;15.00;12.18;;;19.00;99.90;;;;;;5060456;28;20064;-79
2021/06/20 07:06:35;;;;;;;12.23;8.63;;;19.10;99.90;;;;;;5060962;28;20033;-80
2021/06/20 07:09:02;;;;;;;9.38;6.60;;;19.10;99.90;;;;;;5061497;28;20036;-80
2021/06/20 07:11:28;;;;;;;9.70;5.60;;;19.00;99.90;;;;;;5057160;28;20384;-77
2021/06/20 07:13:53;;;;;;;7.45;4.55;;;19.00;99.90;;;;;;5064775;28;20037;-78
2021/06/20 07:16:19;;;;;;;8.93;4.20;;;18.90;99.90;;;;;;5059683;28;20189;-76
2021/06/20 07:18:45;;;;;;;8.30;3.83;;;18.90;99.90;;;;;;5059488;28;20028;-78
2021/06/20 07:21:11;;;;;;;5.25;3.67;;;18.90;99.90;;;;;;5064356;28;20033;-78
2021/06/20 07:23:36;;;;;;;6.65;3.75;;;19.10;99.90;;;;;;5058803;28;20036;-77
2021/06/20 07:26:05;;;;;;;6.20;2.85;;;19.10;99.90;;;;;;5065776;28;20040;-78
2021/06/20 07:28:31;;;;;;;6.78;2.78;;;19.30;99.90;;;;;;5060467;28;20045;-78
2021/06/20 07:30:57;;;;;;;4.82;2.55;;;19.30;99.90;;;;;;5063620;28;20036;-77
2021/06/20 07:33:23;;;;;;;4.95;2.63;;;19.40;99.90;;;;;;5037036;28;20488;-76
2021/06/20 07:35:51;;;;;;;5.63;2.45;;;19.60;99.90;;;;;;5057535;28;20037;-77
2021/06/20 07:38:18;;;;;;;4.45;2.38;;;19.80;99.90;;;;;;5070406;28;20135;-77
2021/06/20 07:40:44;;;;;;;6.80;2.45;;;19.90;99.90;;;;;;5061997;28;20032;-77
2021/06/20 07:43:10;;;;;;;4.20;1.80;;;20.00;99.90;;;;;;5062749;28;20484;-80
2021/06/20 07:45:37;;;;;;;9.30;2.33;;;20.10;99.90;;;;;;5063934;28;20060;-79
2021/06/20 07:48:06;;;;;;;6.63;2.35;;;20.20;99.90;;;;;;5078507;28;20036;-78
2021/06/20 07:50:32;;;;;;;5.82;2.10;;;20.30;99.90;;;;;;5056803;28;20372;-78
2021/06/20 07:52:57;;;;;;;7.85;1.92;;;20.30;99.90;;;;;;5058982;28;20043;-75
2021/06/20 07:55:23;;;;;;;2.72;1.88;;;20.30;99.90;;;;;;5068105;28;20043;-76
2021/06/20 07:57:49;;;;;;;5.78;1.83;;;20.30;99.90;;;;;;5069574;28;20056;-78
2021/06/20 08:00:16;;;;;;;5.78;1.88;;;20.20;99.90;;;;;;5063566;28;20032;-78
2021/06/20 08:02:42;;;;;;;9.50;2.33;;;20.20;99.90;;;;;;5064517;28;20025;-76
2021/06/20 08:05:09;;;;;;;4.78;2.03;;;20.20;99.90;;;;;;5060145;28;20037;-77
2021/06/20 08:07:35;;;;;;;6.43;2.00;;;20.30;99.90;;;;;;5063486;28;20043;-74
2021/06/20 08:10:02;;;;;;;4.50;1.90;;;20.50;99.90;;;;;;5060492;28;20028;-79
2021/06/20 08:12:28;;;;;;;5.75;1.90;;;20.50;99.90;;;;;;5060395;28;20040;-79
2021/06/20 08:14:54;;;;;;;7.43;1.92;;;20.60;99.90;;;;;;5064843;28;20047;-79
2021/06/20 08:17:20;;;;;;;5.60;1.83;;;20.50;99.90;;;;;;5073038;28;20037;-81
2021/06/20 08:19:46;;;;;;;4.32;1.70;;;20.50;99.90;;;;;;5053060;28;20033;-79
2021/06/20 08:22:13;;;;;;;4.80;2.05;;;20.50;99.90;;;;;;5063281;28;20512;-79
2021/06/20 08:24:39;;;;;;;7.78;2.15;;;20.50;99.90;;;;;;5052052;28;20052;-78
2021/06/20 08:27:06;;;;;;;10.65;2.08;;;20.50;99.90;;;;;;5054267;28;20052;-80
2021/06/20 08:29:33;;;;;;;8.23;2.00;;;20.40;99.90;;;;;;5040119;28;20056;-78
2021/06/20 08:31:59;;;;;;;4.70;1.80;;;20.30;99.90;;;;;;5052426;28;20041;-81
2021/06/20 08:34:26;;;;;;;4.53;2.10;;;20.30;99.90;;;;;;5052589;28;20037;-77
2021/06/20 08:36:52;;;;;;;4.95;1.92;;;20.40;99.90;;;;;;5061534;28;20037;-77
2021/06/20 08:39:18;;;;;;;4.88;1.83;;;20.30;99.90;;;;;;5055198;28;20071;-80
2021/06/20 08:41:44;;;;;;;7.82;2.08;;;20.60;99.90;;;;;;5053561;28;20049;-80
2021/06/20 08:44:18;;;;;;;6.00;2.00;;;20.70;99.90;;;;;;5061659;28;20044;-83
2021/06/20 08:46:50;;;;;;;5.07;1.75;;;20.80;99.90;;;;;;5052643;28;20145;-80
2021/06/20 08:49:16;;;;;;;3.97;1.70;;;20.90;99.90;;;;;;5070782;28;20037;-77
2021/06/20 08:51:46;;;;;;;7.68;2.00;;;20.90;99.90;;;;;;5059106;28;20040;-78
2021/06/20 08:54:11;;;;;;;5.70;1.90;;;20.80;99.90;;;;;;5067101;28;20098;-77
2021/06/20 08:56:38;;;;;;;2.30;1.70;;;20.80;99.90;;;;;;5061985;28;20053;-77
2021/06/20 08:59:06;;;;;;;3.28;1.73;;;20.80;99.90;;;;;;5062164;28;20060;-77
2021/06/20 09:01:35;;;;;;;5.32;1.52;;;21.10;99.90;;;;;;5068673;28;20044;-75
2021/06/20 09:04:01;;;;;;;5.28;1.70;;;21.20;99.90;;;;;;5068484;28;20056;-80
2021/06/20 09:06:27;;;;;;;4.55;1.67;;;21.10;99.90;;;;;;5070512;28;20029;-82
2021/06/20 09:09:02;;;;;;;5.38;1.30;;;21.10;99.90;;;;;;5063244;28;20052;-80
2021/06/20 09:11:37;;;;;;;5.25;1.58;;;21.20;99.90;;;;;;5072881;28;20036;-79
2021/06/20 09:14:08;;;;;;;4.97;1.30;;;21.10;99.90;;;;;;5063730;28;20029;-79
2021/06/20 09:16:57;;;;;;;2.63;1.20;;;21.00;99.90;;;;;;5049355;28;20589;-80
2021/06/20 09:19:35;;;;;;;3.38;1.30;;;20.90;99.90;;;;;;5066761;28;20048;-80
2021/06/20 09:22:06;;;;;;;3.78;1.38;;;21.10;99.90;;;;;;5063008;28;20041;-79
2021/06/20 09:24:32;;;;;;;4.35;1.42;;;21.00;99.90;;;;;;5043336;28;20076;-79
2021/06/20 09:27:00;;;;;;;4.28;1.55;;;21.10;99.90;;;;;;5063056;28;20129;-78
2021/06/20 09:29:39;;;;;;;2.03;1.13;;;21.20;99.90;;;;;;5059086;28;20136;-79
2021/06/20 09:32:08;;;;;;;3.78;1.38;;;21.30;99.90;;;;;;5061861;28;20041;-79
2021/06/20 09:35:00;;;;;;;2.17;1.20;;;21.40;99.90;;;;;;5050292;28;20373;-77
2021/06/20 09:37:27;;;;;;;3.67;1.27;;;21.40;99.90;;;;;;5050884;28;20498;-76
2021/06/20 09:39:53;;;;;;;4.13;1.23;;;21.50;99.90;;;;;;5066337;28;20041;-77
2021/06/20 09:42:20;;;;;;;1.73;0.93;;;21.50;99.90;;;;;;5064203;28;20373;-77
2021/06/20 09:44:48;;;;;;;5.45;1.23;;;21.70;99.90;;;;;;5059987;28;20060;-77
2021/06/20 09:47:17;;;;;;;4.28;1.40;;;21.80;99.90;;;;;;5044793;28;20041;-80
2021/06/20 09:49:45;;;;;;;2.90;1.10;;;22.00;99.90;;;;;;5065101;28;20074;-77
2021/06/20 09:52:11;;;;;;;2.63;1.20;;;22.00;99.90;;;;;;5044415;28;20037;-79
2021/06/20 09:54:43;;;;;;;2.60;1.20;;;22.00;99.90;;;;;;5043781;28;20119;-81
2021/06/20 09:57:17;;;;;;;2.83;1.30;;;22.00;99.90;;;;;;5066635;28;20044;-82
2021/06/20 09:59:54;;;;;;;2.90;1.10;;;22.00;99.90;;;;;;5068500;28;20041;-83
2021/06/20 10:02:25;;;;;;;2.15;1.20;;;21.90;99.90;;;;;;5064814;28;20111;-79
2021/06/20 10:04:51;;;;;;;3.22;1.33;;;21.70;99.90;;;;;;5062715;28;20498;-80
2021/06/20 10:07:17;;;;;;;2.55;1.10;;;21.80;99.90;;;;;;5064046;28;20045;-80
2021/06/20 10:09:43;;;;;;;3.08;1.23;;;21.60;99.90;;;;;;5068157;28;20063;-80
2021/06/20 10:12:09;;;;;;;2.75;1.38;;;21.60;99.90;;;;;;5055549;28;20132;-78
2021/06/20 10:14:42;;;;;;;3.20;1.10;;;21.70;99.90;;;;;;5062874;28;20090;-78
2021/06/20 10:17:11;;;;;;;4.82;1.27;;;21.60;99.90;;;;;;5068039;28;20045;-80
2021/06/20 10:19:41;;;;;;;4.40;1.27;;;21.40;99.90;;;;;;5081062;28;20064;-79
2021/06/20 10:22:10;;;;;;;3.90;1.20;;;21.50;99.90;;;;;;5066586;28;20041;-82
2021/06/20 10:24:52;;;;;;;2.60;1.00;;;21.60;99.90;;;;;;5070816;28;20102;-79
2021/06/20 10:27:32;;;;;;;2.53;0.90;;;21.80;99.90;;;;;;5062828;28;20110;-79
2021/06/20 10:29:59;;;;;;;3.38;1.08;;;21.70;99.90;;;;;;5072022;28;20558;-79
2021/06/20 10:32:27;;;;;;;3.13;1.20;;;21.70;99.90;;;;;;5069521;28;20052;-78
2021/06/20 10:34:59;;;;;;;2.63;0.80;;;21.60;99.90;;;;;;5058581;28;20037;-81
2021/06/20 10:37:37;;;;;;;4.18;0.85;;;21.40;99.90;;;;;;5054986;28;20456;-82
2021/06/20 10:40:06;;;;;;;1.10;0.60;;;21.40;99.90;;;;;;5061202;28;20044;-80
2021/06/20 10:42:38;;;;;;;4.93;1.15;;;21.40;99.90;;;;;;5064550;28;20033;-80
2021/06/20 10:45:09;;;;;;;2.85;0.70;;;21.50;99.90;;;;;;5052550;28;20045;-79
2021/06/20 10:47:40;;;;;;;3.58;0.90;;;21.50;99.90;;;;;;5060856;28;20044;-80
2021/06/20 10:50:12;;;;;;;2.88;0.80;;;21.50;99.90;;;;;;5068572;28;20453;-80
2021/06/20 10:52:39;;;;;;;2.50;0.85;;;21.50;99.90;;;;;;5067444;28;20049;-77
2021/06/20 10:55:11;;;;;;;2.28;0.75;;;21.50;99.90;;;;;;5064412;28;20029;-79
2021/06/20 10:57:48;;;;;;;2.60;0.70;;;21.60;99.90;;;;;;5061813;28;20032;-79
2021/06/20 11:00:35;;;;;;;2.75;0.90;;;21.70;99.90;;;;;;5066251;28;20036;-80
2021/06/20 11:03:13;;;;;;;5.18;0.90;;;21.70;99.90;;;;;;5064281;28;20033;-82
2021/06/20 11:05:43;;;;;;;2.60;0.90;;;22.00;99.90;;;;;;5061245;28;20460;-83
2021/06/20 11:08:10;;;;;;;2.75;1.10;;;22.30;99.90;;;;;;5062480;28;20047;-80
2021/06/20 11:10:37;;;;;;;4.68;1.10;;;22.30;99.90;;;;;;5055160;28;20037;-79
2021/06/20 11:13:03;;;;;;;4.60;1.30;;;22.10;99.90;;;;;;5064712;28;20041;-80
2021/06/20 11:15:29;;;;;;;11.95;1.13;;;22.10;99.90;;;;;;5056714;28;20400;-80
2021/06/20 11:18:09;;;;;;;4.85;1.30;;;21.90;99.90;;;;;;5055210;28;20370;-78
2021/06/20 11:20:36;;;;;;;4.15;1.17;;;21.70;99.90;;;;;;5053086;28;20476;-80
2021/06/20 11:23:03;;;;;;;5.32;1.25;;;21.80;99.90;;;;;;5054698;28;20040;-80
2021/06/20 11:25:30;;;;;;;3.50;1.20;;;21.80;99.90;;;;;;5060367;28;20054;-80
2021/06/20 11:27:57;;;;;;;3.67;1.15;;;21.80;99.90;;;;;;5057110;28;20053;-78
2021/06/20 11:30:23;;;;;;;5.03;1.30;;;22.00;99.90;;;;;;5054958;28;20041;-81
2021/06/20 11:32:49;;;;;;;6.45;1.50;;;21.90;99.90;;;;;;5068076;28;20028;-82
2021/06/20 11:35:16;;;;;;;3.95;1.27;;;21.90;99.90;;;;;;5066692;28;20040;-77
2021/06/20 11:37:49;;;;;;;4.95;1.42;;;21.70;99.90;;;;;;5063246;28;20135;-78
2021/06/20 11:40:20;;;;;;;4.72;1.10;;;21.60;99.90;;;;;;5055324;28;20040;-80
2021/06/20 11:42:49;;;;;;;3.05;1.17;;;21.40;99.90;;;;;;5062200;28;20028;-80
2021/06/20 11:45:32;;;;;;;4.82;1.30;;;21.10;99.90;;;;;;5057106;28;20071;-81
2021/06/20 11:48:02;;;;;;;8.45;1.70;;;20.90;99.90;;;;;;5054733;28;20041;-81
2021/06/20 11:50:30;;;;;;;7.00;1.50;;;20.90;99.90;;;;;;5062674;28;20064;-80
2021/06/20 11:53:04;;;;;;;4.95;1.48;;;20.80;99.90;;;;;;5067277;28;20063;-80
2021/06/20 11:55:38;;;;;;;4.13;1.20;;;20.90;99.90;;;;;;5060347;28;20036;-80
2021/06/20 11:58:05;;;;;;;7.55;1.73;;;21.00;99.90;;;;;;5070219;28;20136;-81
2021/06/20 12:00:36;;;;;;;6.63;1.58;;;21.20;99.90;;;;;;5060810;28;20036;-80
2021/06/20 12:03:09;;;;;;;7.82;1.45;;;21.50;99.90;;;;;;5063143;28;20029;-80
2021/06/20 12:05:46;;;;;;;8.23;1.60;;;21.70;99.90;;;;;;5062588;28;20068;-79
2021/06/20 12:08:12;;;;;;;5.55;1.48;;;21.70;99.90;;;;;;5065498;28;20037;-79
2021/06/20 12:10:42;;;;;;;7.57;1.38;;;21.50;99.90;;;;;;5056926;28;20484;-80
2021/06/20 12:13:08;;;;;;;6.35;1.42;;;21.30;99.90;;;;;;5054661;28;20033;-79
2021/06/20 12:15:40;;;;;;;7.70;1.50;;;21.10;99.90;;;;;;5064971;28;20048;-78
2021/06/20 12:18:11;;;;;;;8.30;1.92;;;20.80;99.90;;;;;;5060823;28;20110;-79
2021/06/20 12:20:43;;;;;;;8.20;1.50;;;20.70;99.90;;;;;;5064245;28;20032;-79
2021/06/20 12:23:27;;;;;;;7.00;1.50;;;20.70;99.90;;;;;;5062965;28;20037;-77
2021/06/20 12:25:54;;;;;;;9.93;1.63;;;20.40;99.90;;;;;;5067912;28;20318;-79
2021/06/20 12:28:21;;;;;;;10.38;2.17;;;20.30;99.90;;;;;;5064904;28;20050;-80
2021/06/20 12:30:50;;;;;;;7.78;1.73;;;20.30;99.90;;;;;;5062008;28;20500;-78
2021/06/20 12:33:18;;;;;;;5.85;1.45;;;20.20;99.90;;;;;;5049916;28;20041;-81
2021/06/20 12:35:51;;;;;;;5.30;1.65;;;20.20;99.90;;;;;;5053032;28;20037;-82
2021/06/20 12:38:22;;;;;;;7.32;1.88;;;20.00;99.90;;;;;;5058054;28;20040;-81